Главная страница
METAR-TAF:

METAR-TAF

Аэропорты :

Курессааре, Эстония

широта: 58-13-48N, долгота: 022-30-34E, высота над уровнем моря: 4 м

Текущие метеонаблюдения

Эта сводка был подготовлена 1 час и 9 минут назад, в 01:50 UTC
Ветер 5 Узел от южный-юго-западный
Температура 11°C
Влажность 100%
Давление 1018 hPa
Видимость: 3700 м
дымка

METAR: EEKE 180150Z AUTO 21005KT 3700NDV BR NCD 11/11 Q1018

Время: 05:59 (02:59 UTC)

Прогноз

Эта сводка был подготовлена 12 часа и 59 минут назад, в 14:00 UTC
Прогноз действительный с 17-го 15 UTC до 17-го 21 UTC
Ветер 8 Узел от южный-юго-западный
Видимость: 7000 м
Отдельные облака на высоте 1000 фута
временами
С 17-го 15 UTC до 17-го 17 UTC
Видимость: 2000 м
Рассеянная облачность на высоте 400 фута
дымка
временами
С 17-го 17 UTC до 17-го 21 UTC
Видимость: 0500 м
на высоте 200 фута
туман

TAF: EEKE 171400Z 1715/1721 21008KT 7000 SCT010 TEMPO 1715/1717 2000 BR BKN004 TEMPO 1717/1721 0500 FG VV002

Метеонаблюдения и прогнозы для более 4000 аэропортов (сводки METAR и TAF).

Имеющиеся станции представлены на карте желтыми и красными точками.

Чтобы увидеть название станции, наведите на нее мышь.

Затем щелкните, чтобы увидеть метеонаблюдения и метеопрогнозы.

Управление картой: чтобы увеличить масштаб, щелкните зеленые кнопки с черным крестиком; чтобы уменьшить масштаб, щелкните зеленую кнопку с тире; для просмотра соседних карт щелкайте зеленые стрелки.


METAR-TAF: